Portada
METAR-TAF:

METAR-TAF

Aeroports :

Dole, França

latitud: 47-02-34N, longitud: 005-26-06E, altitud: 196 m

Observació

L'informe es va fer fa 30 minuts, a les 17:00 UTC
Vent 15 kt del Nord-Est
Temperatura 4°C
Humitat 87%
Pressió 1021 hPa
Visibilitat 10 km o més
Escasses núvols a una alçada de 1700 ft
Cel cobert a una alçada de 3600 ft
pluja

METAR: LFGJ 291700Z AUTO 04015KT 9999 -RA FEW017 OVC036 04/02 Q1021 TEMPO OVC008

Hora: 19:30 (17:30 UTC)

Pronòstic

L'informe es va fer fa 3 hores i 30 minuts, a les 14:00 UTC
Pronòstic vàlid del 29 a les 15 UTC al 29 a les 24 UTC
Vent 15 kt del Nord
Visibilitat 10 km o més
Cel ennuvolat a una alçada de 2000 ft
Cel ennuvolat a una alçada de 3000 ft
Temporalment
l' 29 a les 15 UTC al 29 a les 21 UTC
Cel cobert a una alçada de 800 ft
pluja

TAF: LFGJ 291400Z 2915/2924 01015KT 9999 BKN020 BKN030 TEMPO 2915/2921 -RA OVC008

Observacions i pronòstics meteorològics de més de 4000 aeroports (METAR i TAF).

Les estacions disponibles són els punts grocs i vermells al mapa.

Posi el ratolí al punt desitjat per veure el nom de l'estació.

Feu clic per veure les observacions i els pronòstics meteorològics.

Per canviar el mapa: feu clic els botons verds amb una creu de color negre per apropar; al botó verd amb un guió per allunyar la imatge; o en les fletxes verdes per a mapes adjacents.


METAR-TAF: